sensor_id;sensor_type;location;lat;lon;timestamp;P1;durP1;ratioP1;P2;durP2;ratioP2
75810;SDS011;64449;50.016;19.954;2023-04-24T00:00:00;5.20;;;3.20;;
75810;SDS011;64449;50.016;19.954;2023-04-24T00:02:28;6.00;;;3.50;;
75810;SDS011;64449;50.016;19.954;2023-04-24T00:04:53;5.90;;;3.60;;
75810;SDS011;64449;50.016;19.954;2023-04-24T00:07:19;6.40;;;3.40;;
75810;SDS011;64449;50.016;19.954;2023-04-24T00:09:45;8.60;;;3.80;;
75810;SDS011;64449;50.016;19.954;2023-04-24T00:12:11;5.50;;;3.90;;
75810;SDS011;64449;50.016;19.954;2023-04-24T00:14:36;6.30;;;3.60;;
75810;SDS011;64449;50.016;19.954;2023-04-24T00:17:02;7.00;;;4.00;;
75810;SDS011;64449;50.016;19.954;2023-04-24T00:19:28;5.80;;;4.10;;
75810;SDS011;64449;50.016;19.954;2023-04-24T00:21:54;8.20;;;4.10;;
75810;SDS011;64449;50.016;19.954;2023-04-24T00:24:19;4.70;;;3.10;;
75810;SDS011;64449;50.016;19.954;2023-04-24T00:26:45;5.30;;;3.40;;
75810;SDS011;64449;50.016;19.954;2023-04-24T00:29:11;4.20;;;2.70;;
75810;SDS011;64449;50.016;19.954;2023-04-24T00:31:36;5.80;;;3.80;;
75810;SDS011;64449;50.016;19.954;2023-04-24T00:34:02;5.70;;;3.80;;
75810;SDS011;64449;50.016;19.954;2023-04-24T00:36:28;5.30;;;3.30;;
75810;SDS011;64449;50.016;19.954;2023-04-24T00:38:54;5.40;;;3.70;;
75810;SDS011;64449;50.016;19.954;2023-04-24T00:41:20;6.10;;;3.60;;
75810;SDS011;64449;50.016;19.954;2023-04-24T00:43:47;5.90;;;3.30;;
75810;SDS011;64449;50.016;19.954;2023-04-24T00:46:13;4.70;;;3.20;;
75810;SDS011;64449;50.016;19.954;2023-04-24T00:48:39;5.00;;;3.30;;
75810;SDS011;64449;50.016;19.954;2023-04-24T00:51:05;5.70;;;3.50;;
75810;SDS011;64449;50.016;19.954;2023-04-24T00:53:31;4.90;;;3.30;;
75810;SDS011;64449;50.016;19.954;2023-04-24T00:55:57;5.30;;;3.40;;
75810;SDS011;64449;50.016;19.954;2023-04-24T00:58:23;5.40;;;3.40;;
75810;SDS011;64449;50.016;19.954;2023-04-24T01:00:49;4.40;;;2.80;;
75810;SDS011;64449;50.016;19.954;2023-04-24T01:03:18;7.00;;;3.50;;
75810;SDS011;64449;50.016;19.954;2023-04-24T01:05:46;7.10;;;4.00;;
75810;SDS011;64449;50.016;19.954;2023-04-24T01:08:13;7.00;;;3.70;;
75810;SDS011;64449;50.016;19.954;2023-04-24T01:10:40;6.20;;;3.50;;
75810;SDS011;64449;50.016;19.954;2023-04-24T01:13:07;6.60;;;3.40;;
75810;SDS011;64449;50.016;19.954;2023-04-24T01:15:34;6.30;;;4.10;;
75810;SDS011;64449;50.016;19.954;2023-04-24T01:17:59;5.90;;;3.80;;
75810;SDS011;64449;50.016;19.954;2023-04-24T01:20:25;5.20;;;3.80;;
75810;SDS011;64449;50.016;19.954;2023-04-24T01:22:51;5.80;;;3.70;;
75810;SDS011;64449;50.016;19.954;2023-04-24T01:25:18;5.10;;;3.40;;
75810;SDS011;64449;50.016;19.954;2023-04-24T01:27:43;5.10;;;3.50;;
75810;SDS011;64449;50.016;19.954;2023-04-24T01:30:10;4.10;;;3.00;;
75810;SDS011;64449;50.016;19.954;2023-04-24T01:32:36;5.00;;;3.40;;
75810;SDS011;64449;50.016;19.954;2023-04-24T01:35:03;5.80;;;3.10;;
75810;SDS011;64449;50.016;19.954;2023-04-24T01:37:29;5.80;;;3.50;;
75810;SDS011;64449;50.016;19.954;2023-04-24T01:39:54;4.90;;;3.00;;
75810;SDS011;64449;50.016;19.954;2023-04-24T01:42:20;6.20;;;3.50;;
75810;SDS011;64449;50.016;19.954;2023-04-24T01:44:46;5.80;;;3.50;;
75810;SDS011;64449;50.016;19.954;2023-04-24T01:47:12;4.70;;;3.50;;
75810;SDS011;64449;50.016;19.954;2023-04-24T01:49:38;5.80;;;3.40;;
75810;SDS011;64449;50.016;19.954;2023-04-24T01:52:04;5.70;;;3.10;;
75810;SDS011;64449;50.016;19.954;2023-04-24T01:54:29;4.40;;;2.70;;
75810;SDS011;64449;50.016;19.954;2023-04-24T01:56:55;4.10;;;2.80;;
75810;SDS011;64449;50.016;19.954;2023-04-24T01:59:20;5.80;;;3.00;;
75810;SDS011;64449;50.016;19.954;2023-04-24T02:01:48;5.00;;;3.10;;
75810;SDS011;64449;50.016;19.954;2023-04-24T02:04:14;5.20;;;3.00;;
75810;SDS011;64449;50.016;19.954;2023-04-24T02:06:40;5.60;;;3.30;;
75810;SDS011;64449;50.016;19.954;2023-04-24T02:09:06;3.80;;;2.70;;
75810;SDS011;64449;50.016;19.954;2023-04-24T02:11:31;5.10;;;2.90;;
75810;SDS011;64449;50.016;19.954;2023-04-24T02:13:57;4.90;;;3.10;;
75810;SDS011;64449;50.016;19.954;2023-04-24T02:16:22;6.30;;;3.70;;
75810;SDS011;64449;50.016;19.954;2023-04-24T02:18:48;5.80;;;3.20;;
75810;SDS011;64449;50.016;19.954;2023-04-24T02:21:13;5.80;;;3.80;;
75810;SDS011;64449;50.016;19.954;2023-04-24T02:23:38;4.80;;;3.00;;
75810;SDS011;64449;50.016;19.954;2023-04-24T02:26:04;4.50;;;3.10;;
75810;SDS011;64449;50.016;19.954;2023-04-24T02:28:30;4.40;;;3.20;;
75810;SDS011;64449;50.016;19.954;2023-04-24T02:30:55;5.80;;;3.90;;
75810;SDS011;64449;50.016;19.954;2023-04-24T02:33:21;5.70;;;3.50;;
75810;SDS011;64449;50.016;19.954;2023-04-24T02:35:46;5.10;;;3.30;;
75810;SDS011;64449;50.016;19.954;2023-04-24T02:38:11;5.00;;;3.50;;
75810;SDS011;64449;50.016;19.954;2023-04-24T02:40:37;6.20;;;3.60;;
75810;SDS011;64449;50.016;19.954;2023-04-24T02:43:02;7.10;;;4.10;;
75810;SDS011;64449;50.016;19.954;2023-04-24T02:45:28;17.00;;;12.10;;
75810;SDS011;64449;50.016;19.954;2023-04-24T02:47:53;9.30;;;5.50;;
75810;SDS011;64449;50.016;19.954;2023-04-24T02:50:18;7.00;;;4.20;;
75810;SDS011;64449;50.016;19.954;2023-04-24T02:52:44;6.60;;;4.00;;
75810;SDS011;64449;50.016;19.954;2023-04-24T02:55:10;13.70;;;9.40;;
75810;SDS011;64449;50.016;19.954;2023-04-24T02:57:35;6.30;;;3.50;;
75810;SDS011;64449;50.016;19.954;2023-04-24T03:00:00;4.50;;;2.90;;
75810;SDS011;64449;50.016;19.954;2023-04-24T03:02:26;6.10;;;4.40;;
75810;SDS011;64449;50.016;19.954;2023-04-24T03:04:51;6.20;;;4.20;;
75810;SDS011;64449;50.016;19.954;2023-04-24T03:07:17;6.00;;;4.20;;
75810;SDS011;64449;50.016;19.954;2023-04-24T03:09:46;11.20;;;6.70;;
75810;SDS011;64449;50.016;19.954;2023-04-24T03:12:12;13.90;;;8.60;;
75810;SDS011;64449;50.016;19.954;2023-04-24T03:14:37;7.00;;;4.50;;
75810;SDS011;64449;50.016;19.954;2023-04-24T03:17:03;5.60;;;3.30;;
75810;SDS011;64449;50.016;19.954;2023-04-24T03:19:28;6.70;;;3.50;;
75810;SDS011;64449;50.016;19.954;2023-04-24T03:21:53;5.50;;;3.70;;
75810;SDS011;64449;50.016;19.954;2023-04-24T03:24:19;4.90;;;3.00;;
75810;SDS011;64449;50.016;19.954;2023-04-24T03:26:45;5.00;;;3.50;;
75810;SDS011;64449;50.016;19.954;2023-04-24T03:29:11;5.30;;;3.50;;
75810;SDS011;64449;50.016;19.954;2023-04-24T03:31:36;5.50;;;4.00;;
75810;SDS011;64449;50.016;19.954;2023-04-24T03:34:01;10.10;;;4.70;;
75810;SDS011;64449;50.016;19.954;2023-04-24T03:36:27;8.70;;;4.10;;
75810;SDS011;64449;50.016;19.954;2023-04-24T03:38:52;6.30;;;3.40;;
75810;SDS011;64449;50.016;19.954;2023-04-24T03:41:18;4.70;;;3.40;;
75810;SDS011;64449;50.016;19.954;2023-04-24T03:43:44;9.30;;;4.20;;
75810;SDS011;64449;50.016;19.954;2023-04-24T03:46:09;8.70;;;4.60;;
75810;SDS011;64449;50.016;19.954;2023-04-24T03:48:35;5.30;;;3.20;;
75810;SDS011;64449;50.016;19.954;2023-04-24T03:51:00;6.90;;;5.00;;
75810;SDS011;64449;50.016;19.954;2023-04-24T03:53:26;6.20;;;3.90;;
75810;SDS011;64449;50.016;19.954;2023-04-24T03:55:52;5.90;;;3.80;;
75810;SDS011;64449;50.016;19.954;2023-04-24T03:58:18;7.00;;;4.30;;
75810;SDS011;64449;50.016;19.954;2023-04-24T04:00:44;7.50;;;4.90;;
75810;SDS011;64449;50.016;19.954;2023-04-24T04:03:09;8.40;;;4.60;;
75810;SDS011;64449;50.016;19.954;2023-04-24T04:05:34;5.40;;;3.40;;
75810;SDS011;64449;50.016;19.954;2023-04-24T04:08:00;6.40;;;3.80;;
75810;SDS011;64449;50.016;19.954;2023-04-24T04:10:25;7.50;;;4.60;;
75810;SDS011;64449;50.016;19.954;2023-04-24T04:12:51;9.00;;;5.70;;
75810;SDS011;64449;50.016;19.954;2023-04-24T04:15:16;8.30;;;6.30;;
75810;SDS011;64449;50.016;19.954;2023-04-24T04:17:41;9.40;;;5.40;;
75810;SDS011;64449;50.016;19.954;2023-04-24T04:20:07;6.80;;;5.10;;
75810;SDS011;64449;50.016;19.954;2023-04-24T04:22:36;9.60;;;5.30;;
75810;SDS011;64449;50.016;19.954;2023-04-24T04:25:02;8.40;;;5.20;;
75810;SDS011;64449;50.016;19.954;2023-04-24T04:27:29;8.60;;;5.10;;
75810;SDS011;64449;50.016;19.954;2023-04-24T04:30:00;9.10;;;5.20;;
75810;SDS011;64449;50.016;19.954;2023-04-24T04:32:29;8.90;;;5.00;;
75810;SDS011;64449;50.016;19.954;2023-04-24T04:34:58;9.80;;;5.40;;
75810;SDS011;64449;50.016;19.954;2023-04-24T04:37:31;7.80;;;5.20;;
75810;SDS011;64449;50.016;19.954;2023-04-24T04:39:58;12.20;;;5.10;;
75810;SDS011;64449;50.016;19.954;2023-04-24T04:42:24;7.30;;;5.10;;
75810;SDS011;64449;50.016;19.954;2023-04-24T04:44:50;11.50;;;5.50;;
75810;SDS011;64449;50.016;19.954;2023-04-24T04:47:16;9.40;;;5.80;;
75810;SDS011;64449;50.016;19.954;2023-04-24T04:49:42;11.20;;;5.80;;
75810;SDS011;64449;50.016;19.954;2023-04-24T04:52:08;9.20;;;6.00;;
75810;SDS011;64449;50.016;19.954;2023-04-24T04:54:34;9.10;;;5.30;;
75810;SDS011;64449;50.016;19.954;2023-04-24T04:57:00;8.70;;;5.90;;
75810;SDS011;64449;50.016;19.954;2023-04-24T04:59:26;17.40;;;11.60;;
75810;SDS011;64449;50.016;19.954;2023-04-24T05:01:52;14.10;;;8.60;;
75810;SDS011;64449;50.016;19.954;2023-04-24T05:04:17;8.50;;;5.30;;
75810;SDS011;64449;50.016;19.954;2023-04-24T05:06:43;8.50;;;5.70;;
75810;SDS011;64449;50.016;19.954;2023-04-24T05:09:09;10.40;;;5.50;;
75810;SDS011;64449;50.016;19.954;2023-04-24T05:11:34;10.80;;;6.20;;
75810;SDS011;64449;50.016;19.954;2023-04-24T05:14:00;9.00;;;5.70;;
75810;SDS011;64449;50.016;19.954;2023-04-24T05:16:25;8.80;;;4.90;;
75810;SDS011;64449;50.016;19.954;2023-04-24T05:18:51;12.70;;;7.60;;
75810;SDS011;64449;50.016;19.954;2023-04-24T05:21:16;12.20;;;7.30;;
75810;SDS011;64449;50.016;19.954;2023-04-24T05:23:42;11.60;;;6.20;;
75810;SDS011;64449;50.016;19.954;2023-04-24T05:26:07;9.20;;;5.80;;
75810;SDS011;64449;50.016;19.954;2023-04-24T05:28:33;9.30;;;5.10;;
75810;SDS011;64449;50.016;19.954;2023-04-24T05:31:01;11.30;;;5.90;;
75810;SDS011;64449;50.016;19.954;2023-04-24T05:33:27;12.00;;;6.40;;
75810;SDS011;64449;50.016;19.954;2023-04-24T05:35:52;12.50;;;6.00;;
75810;SDS011;64449;50.016;19.954;2023-04-24T05:38:18;14.10;;;5.90;;
75810;SDS011;64449;50.016;19.954;2023-04-24T05:40:44;11.20;;;6.10;;
75810;SDS011;64449;50.016;19.954;2023-04-24T05:43:10;12.20;;;6.20;;
75810;SDS011;64449;50.016;19.954;2023-04-24T05:45:36;9.30;;;6.50;;
75810;SDS011;64449;50.016;19.954;2023-04-24T05:48:02;13.90;;;7.10;;
75810;SDS011;64449;50.016;19.954;2023-04-24T05:50:28;17.00;;;9.10;;
75810;SDS011;64449;50.016;19.954;2023-04-24T05:52:53;16.80;;;9.30;;
75810;SDS011;64449;50.016;19.954;2023-04-24T05:55:19;16.50;;;8.70;;
75810;SDS011;64449;50.016;19.954;2023-04-24T05:57:45;14.50;;;7.10;;
75810;SDS011;64449;50.016;19.954;2023-04-24T06:00:12;13.80;;;8.00;;
75810;SDS011;64449;50.016;19.954;2023-04-24T06:02:38;20.00;;;9.00;;
75810;SDS011;64449;50.016;19.954;2023-04-24T06:05:04;19.10;;;9.40;;
75810;SDS011;64449;50.016;19.954;2023-04-24T06:07:30;14.50;;;8.10;;
75810;SDS011;64449;50.016;19.954;2023-04-24T06:09:56;14.90;;;7.70;;
75810;SDS011;64449;50.016;19.954;2023-04-24T06:12:22;17.60;;;8.20;;
75810;SDS011;64449;50.016;19.954;2023-04-24T06:14:48;14.80;;;8.40;;
75810;SDS011;64449;50.016;19.954;2023-04-24T06:17:13;12.20;;;7.00;;
75810;SDS011;64449;50.016;19.954;2023-04-24T06:19:39;13.40;;;8.00;;
75810;SDS011;64449;50.016;19.954;2023-04-24T06:22:05;15.00;;;7.00;;
75810;SDS011;64449;50.016;19.954;2023-04-24T06:24:30;11.90;;;6.60;;
75810;SDS011;64449;50.016;19.954;2023-04-24T06:26:56;15.90;;;8.00;;
75810;SDS011;64449;50.016;19.954;2023-04-24T06:29:22;11.40;;;6.40;;
75810;SDS011;64449;50.016;19.954;2023-04-24T06:31:48;9.80;;;6.10;;
75810;SDS011;64449;50.016;19.954;2023-04-24T06:34:13;9.10;;;5.70;;
75810;SDS011;64449;50.016;19.954;2023-04-24T06:36:39;12.50;;;6.00;;
75810;SDS011;64449;50.016;19.954;2023-04-24T06:39:04;12.80;;;5.50;;
75810;SDS011;64449;50.016;19.954;2023-04-24T06:41:30;12.40;;;8.00;;
75810;SDS011;64449;50.016;19.954;2023-04-24T06:43:55;13.30;;;7.00;;
75810;SDS011;64449;50.016;19.954;2023-04-24T06:46:21;17.00;;;8.40;;
75810;SDS011;64449;50.016;19.954;2023-04-24T06:48:49;15.10;;;7.80;;
75810;SDS011;64449;50.016;19.954;2023-04-24T06:51:15;14.50;;;6.70;;
75810;SDS011;64449;50.016;19.954;2023-04-24T06:53:42;20.30;;;9.70;;
75810;SDS011;64449;50.016;19.954;2023-04-24T06:56:08;14.20;;;6.70;;
75810;SDS011;64449;50.016;19.954;2023-04-24T06:58:33;11.40;;;6.20;;
75810;SDS011;64449;50.016;19.954;2023-04-24T07:00:58;10.60;;;5.50;;
75810;SDS011;64449;50.016;19.954;2023-04-24T07:03:24;12.00;;;5.80;;
75810;SDS011;64449;50.016;19.954;2023-04-24T07:05:49;10.70;;;5.10;;
75810;SDS011;64449;50.016;19.954;2023-04-24T07:08:14;9.90;;;5.40;;
75810;SDS011;64449;50.016;19.954;2023-04-24T07:10:42;10.20;;;5.80;;
75810;SDS011;64449;50.016;19.954;2023-04-24T07:13:08;15.80;;;6.70;;
75810;SDS011;64449;50.016;19.954;2023-04-24T07:15:33;11.10;;;5.50;;
75810;SDS011;64449;50.016;19.954;2023-04-24T07:17:59;10.70;;;5.60;;
75810;SDS011;64449;50.016;19.954;2023-04-24T07:20:25;10.80;;;6.10;;
75810;SDS011;64449;50.016;19.954;2023-04-24T07:22:51;15.80;;;6.70;;
75810;SDS011;64449;50.016;19.954;2023-04-24T07:25:18;5.20;;;2.70;;
75810;SDS011;64449;50.016;19.954;2023-04-24T07:27:44;3.50;;;2.20;;
75810;SDS011;64449;50.016;19.954;2023-04-24T07:30:09;5.20;;;2.90;;
75810;SDS011;64449;50.016;19.954;2023-04-24T07:32:35;4.30;;;2.30;;
75810;SDS011;64449;50.016;19.954;2023-04-24T07:35:01;5.10;;;3.80;;
75810;SDS011;64449;50.016;19.954;2023-04-24T07:37:26;6.30;;;2.60;;
75810;SDS011;64449;50.016;19.954;2023-04-24T07:39:53;4.90;;;2.90;;
75810;SDS011;64449;50.016;19.954;2023-04-24T07:42:18;3.90;;;2.70;;
75810;SDS011;64449;50.016;19.954;2023-04-24T07:44:43;4.80;;;2.80;;
75810;SDS011;64449;50.016;19.954;2023-04-24T07:47:10;4.50;;;2.50;;
75810;SDS011;64449;50.016;19.954;2023-04-24T07:49:36;9.20;;;3.10;;
75810;SDS011;64449;50.016;19.954;2023-04-24T07:52:01;4.10;;;2.50;;
75810;SDS011;64449;50.016;19.954;2023-04-24T07:54:27;4.80;;;2.70;;
75810;SDS011;64449;50.016;19.954;2023-04-24T07:56:53;5.30;;;2.80;;
75810;SDS011;64449;50.016;19.954;2023-04-24T07:59:19;4.10;;;3.00;;
75810;SDS011;64449;50.016;19.954;2023-04-24T08:01:44;7.50;;;2.80;;
75810;SDS011;64449;50.016;19.954;2023-04-24T08:04:10;3.80;;;2.20;;
75810;SDS011;64449;50.016;19.954;2023-04-24T08:06:35;4.10;;;2.70;;
75810;SDS011;64449;50.016;19.954;2023-04-24T08:09:01;4.40;;;3.00;;
75810;SDS011;64449;50.016;19.954;2023-04-24T08:11:26;4.60;;;2.20;;
75810;SDS011;64449;50.016;19.954;2023-04-24T08:13:52;5.20;;;3.50;;
75810;SDS011;64449;50.016;19.954;2023-04-24T08:16:18;5.00;;;2.80;;
75810;SDS011;64449;50.016;19.954;2023-04-24T08:18:43;3.50;;;2.60;;
75810;SDS011;64449;50.016;19.954;2023-04-24T08:21:08;4.10;;;2.70;;
75810;SDS011;64449;50.016;19.954;2023-04-24T08:23:34;4.00;;;2.20;;
75810;SDS011;64449;50.016;19.954;2023-04-24T08:25:59;4.10;;;2.90;;
75810;SDS011;64449;50.016;19.954;2023-04-24T08:28:25;4.30;;;2.60;;
75810;SDS011;64449;50.016;19.954;2023-04-24T08:30:50;4.80;;;2.50;;
75810;SDS011;64449;50.016;19.954;2023-04-24T08:33:20;5.30;;;2.60;;
75810;SDS011;64449;50.016;19.954;2023-04-24T08:35:46;4.90;;;3.00;;
75810;SDS011;64449;50.016;19.954;2023-04-24T08:38:12;5.00;;;3.00;;
75810;SDS011;64449;50.016;19.954;2023-04-24T08:40:37;3.70;;;2.30;;
75810;SDS011;64449;50.016;19.954;2023-04-24T08:43:04;4.00;;;2.50;;
75810;SDS011;64449;50.016;19.954;2023-04-24T08:45:30;4.80;;;3.10;;
75810;SDS011;64449;50.016;19.954;2023-04-24T08:47:55;4.60;;;3.00;;
75810;SDS011;64449;50.016;19.954;2023-04-24T08:50:23;5.10;;;2.80;;
75810;SDS011;64449;50.016;19.954;2023-04-24T08:52:50;3.80;;;2.50;;
75810;SDS011;64449;50.016;19.954;2023-04-24T08:55:16;4.80;;;2.80;;
75810;SDS011;64449;50.016;19.954;2023-04-24T08:57:44;4.20;;;2.70;;
75810;SDS011;64449;50.016;19.954;2023-04-24T09:00:10;6.40;;;2.70;;
75810;SDS011;64449;50.016;19.954;2023-04-24T09:02:38;4.20;;;2.40;;
75810;SDS011;64449;50.016;19.954;2023-04-24T09:05:07;6.30;;;2.60;;
75810;SDS011;64449;50.016;19.954;2023-04-24T09:07:34;3.10;;;2.40;;
75810;SDS011;64449;50.016;19.954;2023-04-24T09:10:02;3.70;;;2.80;;
75810;SDS011;64449;50.016;19.954;2023-04-24T09:12:28;4.80;;;2.90;;
75810;SDS011;64449;50.016;19.954;2023-04-24T09:14:53;4.90;;;3.00;;
75810;SDS011;64449;50.016;19.954;2023-04-24T09:17:20;3.00;;;2.40;;
75810;SDS011;64449;50.016;19.954;2023-04-24T09:19:48;3.80;;;2.30;;
75810;SDS011;64449;50.016;19.954;2023-04-24T09:22:15;4.00;;;2.70;;
75810;SDS011;64449;50.016;19.954;2023-04-24T09:24:40;3.40;;;2.50;;
75810;SDS011;64449;50.016;19.954;2023-04-24T09:27:06;5.50;;;2.90;;
75810;SDS011;64449;50.016;19.954;2023-04-24T09:29:32;4.80;;;3.00;;
75810;SDS011;64449;50.016;19.954;2023-04-24T09:31:58;5.00;;;2.80;;
75810;SDS011;64449;50.016;19.954;2023-04-24T09:34:27;5.30;;;2.40;;
75810;SDS011;64449;50.016;19.954;2023-04-24T09:36:53;3.40;;;2.30;;
75810;SDS011;64449;50.016;19.954;2023-04-24T09:39:19;4.00;;;2.20;;
75810;SDS011;64449;50.016;19.954;2023-04-24T09:41:46;3.80;;;2.50;;
75810;SDS011;64449;50.016;19.954;2023-04-24T09:44:13;3.30;;;2.30;;
75810;SDS011;64449;50.016;19.954;2023-04-24T09:46:38;3.00;;;2.20;;
75810;SDS011;64449;50.016;19.954;2023-04-24T09:49:07;3.50;;;2.40;;
75810;SDS011;64449;50.016;19.954;2023-04-24T09:51:41;3.40;;;2.30;;
75810;SDS011;64449;50.016;19.954;2023-04-24T09:54:13;3.50;;;2.40;;
75810;SDS011;64449;50.016;19.954;2023-04-24T09:56:44;3.30;;;1.90;;
75810;SDS011;64449;50.016;19.954;2023-04-24T09:59:11;3.20;;;2.20;;
75810;SDS011;64449;50.016;19.954;2023-04-24T10:01:37;3.70;;;2.10;;
75810;SDS011;64449;50.016;19.954;2023-04-24T10:04:03;4.00;;;2.20;;
75810;SDS011;64449;50.016;19.954;2023-04-24T10:06:30;4.00;;;2.70;;
75810;SDS011;64449;50.016;19.954;2023-04-24T10:08:58;4.00;;;2.30;;
75810;SDS011;64449;50.016;19.954;2023-04-24T10:11:26;3.00;;;2.00;;
75810;SDS011;64449;50.016;19.954;2023-04-24T10:13:52;3.80;;;2.50;;
75810;SDS011;64449;50.016;19.954;2023-04-24T10:16:18;4.50;;;2.70;;
75810;SDS011;64449;50.016;19.954;2023-04-24T10:18:46;3.90;;;2.80;;
75810;SDS011;64449;50.016;19.954;2023-04-24T10:21:14;6.30;;;2.90;;
75810;SDS011;64449;50.016;19.954;2023-04-24T10:23:40;4.70;;;2.90;;
75810;SDS011;64449;50.016;19.954;2023-04-24T10:26:08;4.20;;;2.60;;
75810;SDS011;64449;50.016;19.954;2023-04-24T10:28:35;3.90;;;2.60;;
75810;SDS011;64449;50.016;19.954;2023-04-24T10:31:01;3.70;;;2.40;;
75810;SDS011;64449;50.016;19.954;2023-04-24T10:33:27;3.30;;;2.10;;
75810;SDS011;64449;50.016;19.954;2023-04-24T10:35:55;3.30;;;2.30;;
75810;SDS011;64449;50.016;19.954;2023-04-24T10:38:24;3.90;;;2.40;;
75810;SDS011;64449;50.016;19.954;2023-04-24T10:40:51;3.70;;;2.40;;
75810;SDS011;64449;50.016;19.954;2023-04-24T10:43:23;3.70;;;2.40;;
75810;SDS011;64449;50.016;19.954;2023-04-24T10:46:09;4.20;;;2.40;;
75810;SDS011;64449;50.016;19.954;2023-04-24T10:51:10;3.80;;;2.40;;
75810;SDS011;64449;50.016;19.954;2023-04-24T10:53:36;5.00;;;2.70;;
75810;SDS011;64449;50.016;19.954;2023-04-24T10:56:03;3.80;;;2.50;;
75810;SDS011;64449;50.016;19.954;2023-04-24T10:58:37;4.80;;;2.50;;
75810;SDS011;64449;50.016;19.954;2023-04-24T11:01:22;5.10;;;2.90;;
75810;SDS011;64449;50.016;19.954;2023-04-24T11:03:50;3.30;;;2.40;;
75810;SDS011;64449;50.016;19.954;2023-04-24T11:06:28;3.70;;;2.60;;
75810;SDS011;64449;50.016;19.954;2023-04-24T11:09:01;4.60;;;2.60;;
75810;SDS011;64449;50.016;19.954;2023-04-24T11:11:29;4.00;;;2.80;;
75810;SDS011;64449;50.016;19.954;2023-04-24T11:19:01;5.90;;;2.60;;
75810;SDS011;64449;50.016;19.954;2023-04-24T11:29:45;5.20;;;3.60;;
75810;SDS011;64449;50.016;19.954;2023-04-24T11:34:39;4.40;;;2.80;;
75810;SDS011;64449;50.016;19.954;2023-04-24T11:37:05;4.50;;;2.60;;
75810;SDS011;64449;50.016;19.954;2023-04-24T11:39:36;5.50;;;2.60;;
75810;SDS011;64449;50.016;19.954;2023-04-24T11:42:02;4.30;;;2.70;;
75810;SDS011;64449;50.016;19.954;2023-04-24T11:44:28;4.30;;;3.10;;
75810;SDS011;64449;50.016;19.954;2023-04-24T11:46:56;3.90;;;2.60;;
75810;SDS011;64449;50.016;19.954;2023-04-24T11:49:22;4.90;;;3.00;;
75810;SDS011;64449;50.016;19.954;2023-04-24T11:51:47;3.00;;;2.20;;
75810;SDS011;64449;50.016;19.954;2023-04-24T11:54:13;3.90;;;2.70;;
75810;SDS011;64449;50.016;19.954;2023-04-24T11:56:38;3.50;;;2.80;;
75810;SDS011;64449;50.016;19.954;2023-04-24T11:59:04;4.30;;;2.20;;
75810;SDS011;64449;50.016;19.954;2023-04-24T12:01:29;6.70;;;3.30;;
75810;SDS011;64449;50.016;19.954;2023-04-24T12:03:59;3.80;;;2.30;;
75810;SDS011;64449;50.016;19.954;2023-04-24T12:06:25;4.60;;;2.40;;
75810;SDS011;64449;50.016;19.954;2023-04-24T12:08:50;5.80;;;2.50;;
75810;SDS011;64449;50.016;19.954;2023-04-24T12:11:20;3.50;;;2.60;;
75810;SDS011;64449;50.016;19.954;2023-04-24T12:13:45;3.70;;;2.50;;
75810;SDS011;64449;50.016;19.954;2023-04-24T12:16:11;4.70;;;2.60;;
75810;SDS011;64449;50.016;19.954;2023-04-24T12:18:41;3.20;;;2.40;;
75810;SDS011;64449;50.016;19.954;2023-04-24T12:21:14;5.50;;;3.00;;
75810;SDS011;64449;50.016;19.954;2023-04-24T12:23:42;5.50;;;2.80;;
75810;SDS011;64449;50.016;19.954;2023-04-24T12:26:11;3.50;;;2.40;;
75810;SDS011;64449;50.016;19.954;2023-04-24T12:28:48;3.10;;;2.10;;
75810;SDS011;64449;50.016;19.954;2023-04-24T12:31:17;3.70;;;2.80;;
75810;SDS011;64449;50.016;19.954;2023-04-24T12:33:46;3.80;;;2.70;;
75810;SDS011;64449;50.016;19.954;2023-04-24T12:36:11;3.30;;;2.10;;
75810;SDS011;64449;50.016;19.954;2023-04-24T12:38:37;4.20;;;2.70;;
75810;SDS011;64449;50.016;19.954;2023-04-24T12:41:09;6.10;;;3.70;;
75810;SDS011;64449;50.016;19.954;2023-04-24T12:43:36;5.50;;;3.40;;
75810;SDS011;64449;50.016;19.954;2023-04-24T12:46:02;8.10;;;3.60;;
75810;SDS011;64449;50.016;19.954;2023-04-24T12:48:29;6.30;;;3.30;;
75810;SDS011;64449;50.016;19.954;2023-04-24T12:50:58;4.80;;;3.30;;
75810;SDS011;64449;50.016;19.954;2023-04-24T12:53:26;5.80;;;3.60;;
75810;SDS011;64449;50.016;19.954;2023-04-24T12:55:54;9.00;;;3.50;;
75810;SDS011;64449;50.016;19.954;2023-04-24T12:58:20;5.60;;;3.50;;
75810;SDS011;64449;50.016;19.954;2023-04-24T13:00:46;5.80;;;3.30;;
75810;SDS011;64449;50.016;19.954;2023-04-24T13:03:12;5.70;;;3.70;;
75810;SDS011;64449;50.016;19.954;2023-04-24T13:05:37;6.30;;;3.70;;
75810;SDS011;64449;50.016;19.954;2023-04-24T13:08:03;6.60;;;4.00;;
75810;SDS011;64449;50.016;19.954;2023-04-24T13:10:28;5.60;;;3.30;;
75810;SDS011;64449;50.016;19.954;2023-04-24T13:12:53;5.10;;;3.60;;
75810;SDS011;64449;50.016;19.954;2023-04-24T13:15:19;4.00;;;2.90;;
75810;SDS011;64449;50.016;19.954;2023-04-24T13:17:45;4.20;;;2.60;;
75810;SDS011;64449;50.016;19.954;2023-04-24T13:20:10;4.30;;;3.20;;
75810;SDS011;64449;50.016;19.954;2023-04-24T13:22:35;4.90;;;2.70;;
75810;SDS011;64449;50.016;19.954;2023-04-24T13:25:01;3.90;;;2.80;;
75810;SDS011;64449;50.016;19.954;2023-04-24T13:27:27;4.50;;;3.00;;
75810;SDS011;64449;50.016;19.954;2023-04-24T13:29:52;6.80;;;2.90;;
75810;SDS011;64449;50.016;19.954;2023-04-24T13:32:17;5.20;;;3.00;;
75810;SDS011;64449;50.016;19.954;2023-04-24T13:34:43;3.50;;;2.70;;
75810;SDS011;64449;50.016;19.954;2023-04-24T13:37:08;6.50;;;2.80;;
75810;SDS011;64449;50.016;19.954;2023-04-24T13:39:34;8.50;;;2.30;;
75810;SDS011;64449;50.016;19.954;2023-04-24T13:42:00;4.70;;;2.50;;
75810;SDS011;64449;50.016;19.954;2023-04-24T13:44:25;4.10;;;2.80;;
75810;SDS011;64449;50.016;19.954;2023-04-24T13:46:52;3.90;;;2.70;;
75810;SDS011;64449;50.016;19.954;2023-04-24T13:49:19;5.20;;;2.60;;
75810;SDS011;64449;50.016;19.954;2023-04-24T13:51:46;5.30;;;2.70;;
75810;SDS011;64449;50.016;19.954;2023-04-24T13:54:11;4.50;;;2.80;;
75810;SDS011;64449;50.016;19.954;2023-04-24T13:56:37;3.60;;;2.10;;
75810;SDS011;64449;50.016;19.954;2023-04-24T13:59:04;3.60;;;2.20;;
75810;SDS011;64449;50.016;19.954;2023-04-24T14:01:30;3.40;;;2.10;;
75810;SDS011;64449;50.016;19.954;2023-04-24T14:03:56;3.00;;;2.20;;
75810;SDS011;64449;50.016;19.954;2023-04-24T14:06:22;3.70;;;2.10;;
75810;SDS011;64449;50.016;19.954;2023-04-24T14:08:48;3.90;;;1.70;;
75810;SDS011;64449;50.016;19.954;2023-04-24T14:11:14;3.60;;;2.20;;
75810;SDS011;64449;50.016;19.954;2023-04-24T14:13:43;3.30;;;1.70;;
75810;SDS011;64449;50.016;19.954;2023-04-24T14:16:10;2.90;;;1.80;;
75810;SDS011;64449;50.016;19.954;2023-04-24T14:18:36;3.30;;;1.80;;
75810;SDS011;64449;50.016;19.954;2023-04-24T14:21:04;5.50;;;2.20;;
75810;SDS011;64449;50.016;19.954;2023-04-24T14:23:30;3.10;;;1.70;;
75810;SDS011;64449;50.016;19.954;2023-04-24T14:25:56;3.90;;;2.00;;
75810;SDS011;64449;50.016;19.954;2023-04-24T14:28:22;3.50;;;2.10;;
75810;SDS011;64449;50.016;19.954;2023-04-24T14:30:48;2.50;;;1.50;;
75810;SDS011;64449;50.016;19.954;2023-04-24T14:33:13;2.60;;;1.60;;
75810;SDS011;64449;50.016;19.954;2023-04-24T14:35:39;2.70;;;1.60;;
75810;SDS011;64449;50.016;19.954;2023-04-24T14:38:06;2.90;;;1.50;;
75810;SDS011;64449;50.016;19.954;2023-04-24T14:40:32;2.50;;;1.60;;
75810;SDS011;64449;50.016;19.954;2023-04-24T14:42:58;4.80;;;1.50;;
75810;SDS011;64449;50.016;19.954;2023-04-24T14:45:26;3.10;;;2.10;;